Gravette, Arkansas
Current Conditions -  °F | °C
As of 2:07 AM on Sunday 26 Oct 2014 (Local Time) from KXNA Reporting Station
Moderate Fog Moderate Fog  
Wind Chill: 59°   Ceiling: Unl
Heat Index: 59°   Visibility: 0.25mi
Dew Point: 59°   Wind: 5mph
Humidity: 100%   Direction: 180°S
Pressure: 30.01"   Gusts: NA
Location:  36.42°N, 94.45°W
Report Text: KXNA 260707Z AUTO 18004KT 1/4SM R17/P6000FT FG CLR 15/15 A3001 RMK AO2 T01500150
Loading
Personal Weather Stations






























Interactive Weather Map
Tropical Storm Tracking
New forecast layout! Learn more

10-Day Weather Forecast

Advertisements
Track Severe Weather on mobile